Wetterdaten: Woche 12.02.07 - 18.02.07 (KW7)
Datum Zeit Temperatur Luftfeuchte Luftdruck Niederschlag Wind Richtung Sonnenschein UV-Strahlung Solar Taupunkt Windchill Windben
12.02.2007 00:00 8.3 C 72 % 1007.4 hPa 0.0 l/m 4.0 km/h (1 Bft) O-SO 0.00 h 0.0 UV-I 0 W/m 3.5 C 7.8 C 5.8 km/h (2 Bft)
12.02.2007 01:00 8.3 C 74 % 1006.8 hPa 0.0 l/m 2.2 km/h (1 Bft) S-SO 0.00 h 0.0 UV-I 0 W/m 3.8 C 8.2 C 4.1 km/h (1 Bft)
12.02.2007 02:00 6.8 C 85 % 1005.9 hPa 0.0 l/m 1.0 km/h (0 Bft) N-NW 0.00 h 0.0 UV-I 0 W/m 4.5 C 6.8 C 2.7 km/h (1 Bft)
12.02.2007 03:00 8.3 C 72 % 1005.0 hPa 0.0 l/m 5.6 km/h (1 Bft) W 0.00 h 0.0 UV-I 0 W/m 3.5 C 7.7 C 9.6 km/h (2 Bft)
12.02.2007 04:00 9.0 C 65 % 1003.9 hPa 0.0 l/m 4.1 km/h (1 Bft) W-SW 0.00 h 0.0 UV-I 0 W/m 2.8 C 8.7 C 7.5 km/h (2 Bft)
12.02.2007 05:00 7.9 C 77 % 1003.5 hPa 1.0 l/m 6.3 km/h (2 Bft) SW 0.00 h 0.0 UV-I 0 W/m 4.0 C 7.0 C 12.0 km/h (2 Bft)
12.02.2007 06:00 6.3 C 91 % 1003.0 hPa 2.0 l/m 6.3 km/h (2 Bft) S-SO 0.00 h 0.0 UV-I 0 W/m 4.9 C 5.1 C 12.6 km/h (3 Bft)
12.02.2007 07:00 6.2 C 92 % 1002.2 hPa 0.6 l/m 7.3 km/h (2 Bft) S-SO 0.00 h 0.0 UV-I 5 W/m 5.0 C 4.8 C 14.3 km/h (3 Bft)
12.02.2007 08:00 6.3 C 93 % 1001.6 hPa 0.8 l/m 6.9 km/h (2 Bft) S-SO 0.00 h 0.0 UV-I 15 W/m 5.4 C 5.1 C 14.1 km/h (3 Bft)
12.02.2007 09:00 6.8 C 94 % 1000.7 hPa 0.8 l/m 6.1 km/h (2 Bft) S-SW 0.00 h 0.5 UV-I 53 W/m 5.9 C 5.8 C 12.7 km/h (3 Bft)
12.02.2007 10:00 7.6 C 93 % 999.9 hPa 0.0 l/m 7.5 km/h (2 Bft) S 0.00 h 0.6 UV-I 72 W/m 6.5 C 6.4 C 14.8 km/h (3 Bft)
12.02.2007 11:00 8.1 C 91 % 999.0 hPa 0.4 l/m 9.4 km/h (2 Bft) S-SO 0.00 h 0.6 UV-I 58 W/m 6.7 C 6.6 C 18.3 km/h (3 Bft)
12.02.2007 12:00 8.8 C 90 % 998.7 hPa 0.2 l/m 10.3 km/h (2 Bft) S 0.00 h 0.6 UV-I 62 W/m 7.2 C 7.1 C 20.4 km/h (4 Bft)
12.02.2007 13:00 8.7 C 93 % 999.7 hPa 4.4 l/m 13.8 km/h (3 Bft) W 0.00 h 0.0 UV-I 18 W/m 7.6 C 6.7 C 21.6 km/h (4 Bft)
12.02.2007 14:00 8.5 C 92 % 1000.9 hPa 2.2 l/m 16.6 km/h (3 Bft) W 0.00 h 0.0 UV-I 25 W/m 7.2 C 5.9 C 25.4 km/h (4 Bft)
12.02.2007 15:00 8.3 C 89 % 1001.6 hPa 0.6 l/m 11.0 km/h (2 Bft) W-SW 0.00 h 0.5 UV-I 38 W/m 6.5 C 6.6 C 17.6 km/h (3 Bft)
12.02.2007 16:00 7.6 C 88 % 1002.2 hPa 0.0 l/m 7.6 km/h (2 Bft) SW 0.00 h 0.0 UV-I 25 W/m 5.8 C 6.4 C 15.1 km/h (3 Bft)
12.02.2007 17:00 6.8 C 83 % 1002.3 hPa 0.0 l/m 7.9 km/h (2 Bft) SW 0.00 h 0.0 UV-I 12 W/m 4.2 C 5.3 C 15.1 km/h (3 Bft)
12.02.2007 18:00 6.6 C 84 % 1002.6 hPa 0.0 l/m 6.4 km/h (2 Bft) SW 0.00 h 0.0 UV-I 0 W/m 4.1 C 5.6 C 13.1 km/h (3 Bft)
12.02.2007 19:00 6.5 C 83 % 1002.7 hPa 0.0 l/m 7.7 km/h (2 Bft) SW 0.00 h 0.0 UV-I 0 W/m 3.8 C 5.1 C 14.7 km/h (3 Bft)
12.02.2007 20:00 6.3 C 82 % 1003.0 hPa 0.0 l/m 7.1 km/h (2 Bft) SW 0.00 h 0.0 UV-I 0 W/m 3.4 C 5.0 C 14.7 km/h (3 Bft)
12.02.2007 21:00 6.4 C 81 % 1003.4 hPa 0.0 l/m 7.4 km/h (2 Bft) SW 0.00 h 0.0 UV-I 0 W/m 3.4 C 5.0 C 13.7 km/h (3 Bft)
12.02.2007 22:00 6.6 C 81 % 1003.8 hPa 0.0 l/m 7.2 km/h (2 Bft) SW 0.00 h 0.0 UV-I 0 W/m 3.7 C 5.3 C 14.4 km/h (3 Bft)
12.02.2007 23:00 6.2 C 84 % 1004.2 hPa 0.2 l/m 8.1 km/h (2 Bft) SW 0.00 h 0.0 UV-I 0 W/m 3.8 C 4.6 C 15.2 km/h (3 Bft)
13.02.2007 00:00 6.0 C 83 % 1005.1 hPa 0.0 l/m 6.8 km/h (2 Bft) SW 0.00 h 0.0 UV-I 0 W/m 3.3 C 4.8 C 12.4 km/h (3 Bft)
13.02.2007 01:00 5.7 C 83 % 1006.0 hPa 0.0 l/m 6.7 km/h (2 Bft) W-SW 0.00 h 0.0 UV-I 0 W/m 3.0 C 4.5 C 11.9 km/h (2 Bft)
13.02.2007 02:00 5.7 C 84 % 1006.7 hPa 0.0 l/m 7.8 km/h (2 Bft) SW 0.00 h 0.0 UV-I 0 W/m 3.2 C 4.1 C 15.3 km/h (3 Bft)
13.02.2007 03:00 5.5 C 84 % 1007.1 hPa 0.0 l/m 7.9 km/h (2 Bft) SW 0.00 h 0.0 UV-I 0 W/m 3.1 C 3.9 C 14.5 km/h (3 Bft)
13.02.2007 04:00 6.0 C 82 % 1007.5 hPa 0.2 l/m 10.9 km/h (2 Bft) W-SW 0.00 h 0.0 UV-I 0 W/m 3.1 C 3.8 C 18.1 km/h (3 Bft)
13.02.2007 05:00 6.8 C 76 % 1007.9 hPa 0.0 l/m 19.1 km/h (3 Bft) W 0.00 h 0.0 UV-I 0 W/m 2.8 C 3.6 C 29.2 km/h (5 Bft)
13.02.2007 06:00 6.8 C 76 % 1008.5 hPa 0.2 l/m 23.2 km/h (4 Bft) W 0.00 h 0.0 UV-I 0 W/m 2.8 C 3.1 C 34.3 km/h (5 Bft)
13.02.2007 07:00 6.8 C 76 % 1009.0 hPa 0.2 l/m 19.8 km/h (4 Bft) W 0.00 h 0.0 UV-I 8 W/m 2.8 C 3.4 C 30.3 km/h (5 Bft)
13.02.2007 08:00 6.7 C 78 % 1010.0 hPa 0.0 l/m 19.9 km/h (4 Bft) W 0.00 h 0.0 UV-I 23 W/m 3.0 C 3.2 C 30.7 km/h (5 Bft)
13.02.2007 09:00 7.0 C 76 % 1011.0 hPa 0.0 l/m 20.5 km/h (4 Bft) W 0.00 h 0.0 UV-I 31 W/m 3.0 C 3.5 C 32.0 km/h (5 Bft)
13.02.2007 10:00 7.3 C 73 % 1012.1 hPa 0.0 l/m 22.9 km/h (4 Bft) W 0.00 h 0.8 UV-I 106 W/m 2.8 C 3.8 C 34.4 km/h (5 Bft)
13.02.2007 11:00 7.7 C 70 % 1013.1 hPa 0.0 l/m 19.6 km/h (3 Bft) W 0.00 h 0.9 UV-I 126 W/m 2.7 C 4.6 C 29.6 km/h (5 Bft)
13.02.2007 12:00 8.0 C 70 % 1013.8 hPa 0.0 l/m 23.0 km/h (4 Bft) W 0.00 h 1.3 UV-I 218 W/m 2.9 C 4.5 C 35.0 km/h (5 Bft)
13.02.2007 13:00 7.9 C 70 % 1014.2 hPa 0.0 l/m 18.6 km/h (3 Bft) W 0.00 h 0.9 UV-I 140 W/m 2.8 C 4.9 C 27.8 km/h (4 Bft)
13.02.2007 14:00 8.4 C 67 % 1014.0 hPa 0.0 l/m 11.7 km/h (2 Bft) W 0.12 h 0.9 UV-I 186 W/m 2.7 C 6.5 C 18.3 km/h (3 Bft)
13.02.2007 15:00 7.9 C 68 % 1014.3 hPa 0.0 l/m 13.0 km/h (3 Bft) W 0.00 h 0.6 UV-I 91 W/m 2.4 C 5.8 C 19.8 km/h (3 Bft)
13.02.2007 16:00 7.2 C 74 % 1015.3 hPa 0.0 l/m 8.5 km/h (2 Bft) W-SW 0.00 h 0.5 UV-I 37 W/m 2.9 C 5.7 C 13.7 km/h (3 Bft)
13.02.2007 17:00 6.6 C 78 % 1016.0 hPa 0.2 l/m 7.7 km/h (2 Bft) W 0.00 h 0.0 UV-I 7 W/m 3.0 C 5.3 C 12.6 km/h (3 Bft)
13.02.2007 18:00 5.8 C 81 % 1016.7 hPa 0.0 l/m 2.4 km/h (1 Bft) SO 0.00 h 0.0 UV-I 0 W/m 2.8 C 5.7 C 4.4 km/h (1 Bft)
13.02.2007 19:00 5.8 C 83 % 1016.8 hPa 0.0 l/m 0.4 km/h (0 Bft) SO 0.00 h 0.0 UV-I 0 W/m 3.1 C 5.8 C 1.0 km/h (0 Bft)
13.02.2007 20:00 5.1 C 86 % 1017.0 hPa 0.0 l/m 0.6 km/h (0 Bft) NO 0.00 h 0.0 UV-I 0 W/m 3.1 C 5.1 C 1.7 km/h (1 Bft)
13.02.2007 21:00 4.1 C 87 % 1016.7 hPa 0.0 l/m 2.4 km/h (1 Bft) O-SO 0.00 h 0.0 UV-I 0 W/m 2.1 C 3.8 C 3.8 km/h (1 Bft)
13.02.2007 22:00 3.4 C 87 % 1016.6 hPa 0.0 l/m 0.9 km/h (0 Bft) O 0.00 h 0.0 UV-I 0 W/m 1.4 C 3.3 C 1.8 km/h (1 Bft)
13.02.2007 23:00 2.1 C 91 % 1016.5 hPa 0.0 l/m 0.5 km/h (0 Bft) O-NO 0.00 h 0.0 UV-I 0 W/m 0.8 C 2.1 C 1.2 km/h (1 Bft)
14.02.2007 00:00 1.2 C 93 % 1016.3 hPa 0.0 l/m 0.9 km/h (0 Bft) O-NO 0.00 h 0.0 UV-I 0 W/m 0.2 C 1.2 C 1.8 km/h (1 Bft)
14.02.2007 01:00 0.7 C 93 % 1015.6 hPa 0.0 l/m 0.1 km/h (0 Bft) O 0.00 h 0.0 UV-I 0 W/m -0.3 C 0.7 C 0.4 km/h (0 Bft)
14.02.2007 02:00 -0.1 C 95 % 1014.7 hPa 0.0 l/m 0.5 km/h (0 Bft) O 0.00 h 0.0 UV-I 0 W/m -0.8 C -0.1 C 1.1 km/h (1 Bft)
14.02.2007 03:00 -0.3 C 97 % 1013.9 hPa 0.0 l/m 0.4 km/h (0 Bft) O 0.00 h 0.0 UV-I 0 W/m -0.8 C -0.3 C 1.0 km/h (0 Bft)
14.02.2007 04:00 -0.5 C 97 % 1013.2 hPa 0.0 l/m 1.0 km/h (0 Bft) O 0.00 h 0.0 UV-I 0 W/m -0.9 C -0.6 C 1.8 km/h (1 Bft)
14.02.2007 05:00 -1.1 C 97 % 1012.9 hPa 0.0 l/m 0.9 km/h (0 Bft) O-SO 0.00 h 0.0 UV-I 0 W/m -1.5 C -1.2 C 2.1 km/h (1 Bft)
14.02.2007 06:00 -1.0 C 98 % 1012.2 hPa 0.0 l/m 0.2 km/h (0 Bft) O 0.00 h 0.0 UV-I 0 W/m -1.2 C -1.0 C 0.7 km/h (0 Bft)
14.02.2007 07:00 -0.8 C 98 % 1011.8 hPa 0.0 l/m 0.3 km/h (0 Bft) O 0.02 h 0.0 UV-I 11 W/m -1.1 C -0.8 C 0.9 km/h (0 Bft)
14.02.2007 08:00 -0.8 C 98 % 1011.7 hPa 0.0 l/m 0.1 km/h (0 Bft) O-SO 0.00 h 0.0 UV-I 24 W/m -1.1 C -0.8 C 0.4 km/h (0 Bft)
14.02.2007 09:00 0.0 C 99 % 1011.3 hPa 0.0 l/m 0.5 km/h (0 Bft) O-SO 0.00 h 0.6 UV-I 100 W/m -0.1 C 0.0 C 1.9 km/h (1 Bft)
14.02.2007 10:00 1.3 C 97 % 1010.6 hPa 0.0 l/m 0.2 km/h (0 Bft) W-SW 0.00 h 0.6 UV-I 91 W/m 0.9 C 1.3 C 0.9 km/h (0 Bft)
14.02.2007 11:00 1.9 C 94 % 1010.2 hPa 0.2 l/m 0.2 km/h (0 Bft) W 0.00 h 0.7 UV-I 100 W/m 1.0 C 1.9 C 1.0 km/h (0 Bft)
14.02.2007 12:00 2.5 C 93 % 1009.7 hPa 0.4 l/m 0.0 km/h (0 Bft) W 0.00 h 0.7 UV-I 80 W/m 1.5 C 2.5 C 0.4 km/h (0 Bft)
14.02.2007 13:00 3.1 C 91 % 1009.3 hPa 0.2 l/m 1.1 km/h (1 Bft) S-SO 0.00 h 0.7 UV-I 82 W/m 1.8 C 3.0 C 2.8 km/h (1 Bft)
14.02.2007 14:00 4.1 C 89 % 1008.7 hPa 0.4 l/m 2.6 km/h (1 Bft) S 0.00 h 0.6 UV-I 62 W/m 2.5 C 3.9 C 5.5 km/h (1 Bft)
14.02.2007 15:00 4.6 C 90 % 1008.2 hPa 1.2 l/m 2.2 km/h (1 Bft) S-SO 0.00 h 0.0 UV-I 30 W/m 3.1 C 4.5 C 4.6 km/h (1 Bft)
14.02.2007 16:00 4.7 C 93 % 1007.9 hPa 0.6 l/m 0.5 km/h (0 Bft) O-SO 0.00 h 0.0 UV-I 25 W/m 3.6 C 4.6 C 1.3 km/h (1 Bft)
14.02.2007 17:00 4.6 C 94 % 1007.7 hPa 0.8 l/m 1.4 km/h (1 Bft) O 0.00 h 0.0 UV-I 8 W/m 3.8 C 4.6 C 2.9 km/h (1 Bft)
14.02.2007 18:00 4.8 C 95 % 1007.8 hPa 1.6 l/m 1.2 km/h (1 Bft) S-SO 0.00 h 0.0 UV-I 0 W/m 4.1 C 4.7 C 3.2 km/h (1 Bft)
14.02.2007 19:00 5.1 C 96 % 1008.0 hPa 1.4 l/m 2.2 km/h (1 Bft) S-SO 0.00 h 0.0 UV-I 0 W/m 4.5 C 5.0 C 5.0 km/h (1 Bft)
14.02.2007 20:00 5.3 C 96 % 1008.0 hPa 1.0 l/m 0.8 km/h (0 Bft) S 0.00 h 0.0 UV-I 0 W/m 4.8 C 5.3 C 2.3 km/h (1 Bft)
14.02.2007 21:00 5.5 C 96 % 1008.3 hPa 0.8 l/m 1.5 km/h (1 Bft) S-SO 0.00 h 0.0 UV-I 0 W/m 4.9 C 5.4 C 3.7 km/h (1 Bft)
14.02.2007 22:00 5.4 C 96 % 1008.6 hPa 1.6 l/m 1.2 km/h (1 Bft) S-SW 0.00 h 0.0 UV-I 0 W/m 4.9 C 5.4 C 3.5 km/h (1 Bft)
14.02.2007 23:00 5.5 C 97 % 1009.3 hPa 1.6 l/m 1.4 km/h (1 Bft) S-SW 0.00 h 0.0 UV-I 0 W/m 5.1 C 5.5 C 4.0 km/h (1 Bft)
15.02.2007 00:00 5.7 C 97 % 1010.1 hPa 0.8 l/m 3.3 km/h (1 Bft) SW 0.00 h 0.0 UV-I 0 W/m 5.3 C 5.4 C 7.1 km/h (2 Bft)
15.02.2007 01:00 6.2 C 98 % 1011.0 hPa 0.0 l/m 5.5 km/h (1 Bft) W 0.00 h 0.0 UV-I 0 W/m 5.9 C 5.3 C 9.9 km/h (2 Bft)
15.02.2007 02:00 7.6 C 95 % 1012.0 hPa 0.0 l/m 14.9 km/h (3 Bft) W 0.00 h 0.0 UV-I 0 W/m 6.9 C 5.1 C 24.1 km/h (4 Bft)
15.02.2007 03:00 7.5 C 90 % 1014.1 hPa 0.0 l/m 16.7 km/h (3 Bft) W 0.00 h 0.0 UV-I 0 W/m 6.0 C 4.6 C 24.7 km/h (4 Bft)
15.02.2007 04:00 7.1 C 88 % 1016.4 hPa 0.0 l/m 10.0 km/h (2 Bft) W 0.00 h 0.0 UV-I 0 W/m 5.3 C 5.3 C 15.0 km/h (3 Bft)
15.02.2007 05:00 6.8 C 89 % 1018.9 hPa 0.0 l/m 5.4 km/h (1 Bft) W 0.00 h 0.0 UV-I 0 W/m 5.1 C 6.1 C 8.5 km/h (2 Bft)
15.02.2007 06:00 6.7 C 88 % 1020.7 hPa 0.0 l/m 1.7 km/h (1 Bft) W-NW 0.00 h 0.0 UV-I 0 W/m 4.9 C 6.7 C 3.6 km/h (1 Bft)
15.02.2007 07:00 6.5 C 87 % 1021.9 hPa 0.0 l/m 1.3 km/h (1 Bft) S 0.20 h 0.0 UV-I 20 W/m 4.6 C 6.4 C 3.2 km/h (1 Bft)
15.02.2007 08:00 6.5 C 88 % 1023.1 hPa 0.0 l/m 0.8 km/h (0 Bft) N-NW 0.18 h 0.0 UV-I 66 W/m 4.6 C 6.5 C 2.3 km/h (1 Bft)
15.02.2007 09:00 7.3 C 84 % 1023.9 hPa 0.0 l/m 3.7 km/h (1 Bft) W-NW 0.62 h 0.7 UV-I 222 W/m 4.7 C 6.9 C 6.2 km/h (2 Bft)
15.02.2007 10:00 8.1 C 77 % 1024.0 hPa 0.0 l/m 5.4 km/h (1 Bft) W-NW 0.80 h 1.1 UV-I 335 W/m 4.3 C 7.5 C 8.7 km/h (2 Bft)
15.02.2007 11:00 9.1 C 68 % 1024.4 hPa 0.0 l/m 6.1 km/h (2 Bft) W-SW 0.97 h 1.5 UV-I 462 W/m 3.5 C 8.5 C 9.5 km/h (2 Bft)
15.02.2007 12:00 9.6 C 63 % 1024.4 hPa 0.0 l/m 4.2 km/h (1 Bft) W 0.37 h 1.5 UV-I 285 W/m 2.8 C 9.3 C 7.0 km/h (2 Bft)
15.02.2007 13:00 10.6 C 58 % 1024.0 hPa 0.0 l/m 4.0 km/h (1 Bft) W-NW 0.82 h 1.5 UV-I 427 W/m 2.8 C 10.6 C 6.6 km/h (2 Bft)
15.02.2007 14:00 11.4 C 54 % 1023.7 hPa 0.0 l/m 2.7 km/h (1 Bft) W-SW 1.00 h 1.3 UV-I 384 W/m 2.5 C 11.4 C 5.0 km/h (1 Bft)
15.02.2007 15:00 11.5 C 54 % 1023.8 hPa 0.0 l/m 3.6 km/h (1 Bft) W-NW 1.00 h 0.9 UV-I 269 W/m 2.4 C 11.5 C 6.1 km/h (2 Bft)
15.02.2007 16:00 11.2 C 53 % 1024.1 hPa 0.0 l/m 2.0 km/h (1 Bft) W-NW 0.92 h 0.6 UV-I 141 W/m 2.1 C 11.2 C 3.6 km/h (1 Bft)
15.02.2007 17:00 9.9 C 60 % 1024.3 hPa 0.0 l/m 0.4 km/h (0 Bft) NW 0.03 h 0.0 UV-I 27 W/m 2.4 C 9.9 C 1.2 km/h (1 Bft)
15.02.2007 18:00 6.8 C 75 % 1024.6 hPa 0.0 l/m 1.3 km/h (1 Bft) O-SO 0.00 h 0.0 UV-I 0 W/m 2.6 C 6.6 C 2.3 km/h (1 Bft)
15.02.2007 19:00 4.8 C 84 % 1025.1 hPa 0.0 l/m 1.9 km/h (1 Bft) O-SO 0.00 h 0.0 UV-I 0 W/m 2.3 C 4.7 C 2.9 km/h (1 Bft)
15.02.2007 20:00 3.4 C 88 % 1024.9 hPa 0.0 l/m 1.5 km/h (1 Bft) SO 0.00 h 0.0 UV-I 0 W/m 1.7 C 3.3 C 2.5 km/h (1 Bft)
15.02.2007 21:00 2.7 C 92 % 1025.4 hPa 0.0 l/m 0.8 km/h (0 Bft) SO 0.00 h 0.0 UV-I 0 W/m 1.4 C 2.7 C 1.4 km/h (1 Bft)
15.02.2007 22:00 2.0 C 93 % 1025.4 hPa 0.0 l/m 0.1 km/h (0 Bft) SO 0.00 h 0.0 UV-I 0 W/m 1.0 C 2.0 C 0.5 km/h (0 Bft)
15.02.2007 23:00 1.5 C 95 % 1025.4 hPa 0.0 l/m 0.2 km/h (0 Bft) SO 0.00 h 0.0 UV-I 0 W/m 0.7 C 1.5 C 0.5 km/h (0 Bft)
16.02.2007 00:00 1.1 C 94 % 1025.6 hPa 0.0 l/m 0.5 km/h (0 Bft) O-NO 0.00 h 0.0 UV-I 0 W/m 0.3 C 1.1 C 1.3 km/h (1 Bft)
16.02.2007 01:00 0.5 C 96 % 1025.8 hPa 0.0 l/m 0.2 km/h (0 Bft) O-NO 0.00 h 0.0 UV-I 0 W/m -0.1 C 0.5 C 0.9 km/h (0 Bft)
16.02.2007 02:00 0.3 C 96 % 1025.5 hPa 0.0 l/m 0.1 km/h (0 Bft) O-NO 0.00 h 0.0 UV-I 0 W/m -0.3 C 0.3 C 0.4 km/h (0 Bft)
16.02.2007 03:00 0.0 C 95 % 1025.3 hPa 0.0 l/m 0.0 km/h (0 Bft) O-NO 0.00 h 0.0 UV-I 0 W/m -0.6 C 0.0 C 0.4 km/h (0 Bft)
16.02.2007 04:00 -0.4 C 95 % 1024.9 hPa 0.0 l/m 0.3 km/h (0 Bft) N-NO 0.00 h 0.0 UV-I 0 W/m -1.0 C -0.4 C 1.0 km/h (0 Bft)
16.02.2007 05:00 -0.7 C 97 % 1025.0 hPa 0.0 l/m 0.2 km/h (0 Bft) N-NO 0.00 h 0.0 UV-I 0 W/m -1.1 C -0.7 C 1.0 km/h (0 Bft)
16.02.2007 06:00 -0.9 C 97 % 1025.0 hPa 0.0 l/m 0.8 km/h (0 Bft) O 0.00 h 0.0 UV-I 0 W/m -1.3 C -1.0 C 1.6 km/h (1 Bft)
16.02.2007 07:00 -1.3 C 98 % 1024.9 hPa 0.0 l/m 0.1 km/h (0 Bft) O 0.00 h 0.0 UV-I 10 W/m -1.6 C -1.3 C 0.3 km/h (0 Bft)
16.02.2007 08:00 -1.0 C 99 % 1025.3 hPa 0.0 l/m 0.2 km/h (0 Bft) N-NO 0.02 h 0.5 UV-I 54 W/m -1.2 C -1.0 C 1.1 km/h (1 Bft)
16.02.2007 09:00 -0.2 C 99 % 1025.1 hPa 0.2 l/m 0.7 km/h (0 Bft) O-SO 0.82 h 0.7 UV-I 216 W/m -0.3 C -0.3 C 1.3 km/h (1 Bft)
16.02.2007 10:00 2.7 C 95 % 1024.3 hPa 0.0 l/m 0.9 km/h (0 Bft) NO 1.00 h 1.2 UV-I 320 W/m 1.9 C 2.7 C 2.5 km/h (1 Bft)
16.02.2007 11:00 6.2 C 73 % 1023.7 hPa 0.0 l/m 0.7 km/h (0 Bft) N-NO 1.00 h 1.7 UV-I 402 W/m 1.6 C 6.2 C 2.0 km/h (1 Bft)
16.02.2007 12:00 8.9 C 62 % 1022.6 hPa 0.0 l/m 2.7 km/h (1 Bft) O-SO 1.00 h 2.0 UV-I 474 W/m 1.9 C 8.8 C 5.4 km/h (1 Bft)
16.02.2007 13:00 10.5 C 54 % 1021.6 hPa 0.0 l/m 4.4 km/h (1 Bft) O-SO 1.00 h 1.9 UV-I 457 W/m 1.5 C 10.5 C 7.2 km/h (2 Bft)
16.02.2007 14:00 11.4 C 50 % 1021.0 hPa 0.0 l/m 6.5 km/h (2 Bft) O-SO 1.00 h 1.5 UV-I 392 W/m 1.2 C 11.4 C 10.3 km/h (2 Bft)
16.02.2007 15:00 11.5 C 47 % 1020.3 hPa 0.0 l/m 7.6 km/h (2 Bft) O-SO 0.95 h 0.9 UV-I 259 W/m 0.4 C 11.5 C 10.8 km/h (2 Bft)
16.02.2007 16:00 11.1 C 47 % 1019.9 hPa 0.0 l/m 8.5 km/h (2 Bft) O-SO 0.62 h 0.6 UV-I 125 W/m 0.2 C 11.1 C 12.8 km/h (3 Bft)
16.02.2007 17:00 9.6 C 54 % 1020.0 hPa 0.0 l/m 3.2 km/h (1 Bft) O-SO 0.03 h 0.0 UV-I 25 W/m 0.8 C 9.6 C 5.3 km/h (1 Bft)
16.02.2007 18:00 8.3 C 60 % 1020.2 hPa 0.0 l/m 0.5 km/h (0 Bft) O-NO 0.00 h 0.0 UV-I 0 W/m 1.0 C 8.3 C 1.9 km/h (1 Bft)
16.02.2007 19:00 7.0 C 68 % 1020.4 hPa 0.0 l/m 0.6 km/h (0 Bft) O-SO 0.00 h 0.0 UV-I 0 W/m 1.4 C 7.0 C 2.1 km/h (1 Bft)
16.02.2007 20:00 6.6 C 68 % 1020.4 hPa 0.0 l/m 1.2 km/h (1 Bft) O-NO 0.00 h 0.0 UV-I 0 W/m 1.1 C 6.6 C 3.7 km/h (1 Bft)
16.02.2007 21:00 6.0 C 69 % 1020.2 hPa 0.0 l/m 1.0 km/h (0 Bft) O-NO 0.00 h 0.0 UV-I 0 W/m 0.8 C 6.0 C 3.1 km/h (1 Bft)
16.02.2007 22:00 4.7 C 75 % 1019.8 hPa 0.0 l/m 1.7 km/h (1 Bft) O 0.00 h 0.0 UV-I 0 W/m 0.6 C 4.7 C 3.8 km/h (1 Bft)
16.02.2007 23:00 4.2 C 77 % 1019.0 hPa 0.0 l/m 1.2 km/h (1 Bft) NO 0.00 h 0.0 UV-I 0 W/m 0.5 C 4.1 C 2.9 km/h (1 Bft)
17.02.2007 00:00 3.7 C 79 % 1018.4 hPa 0.0 l/m 4.6 km/h (1 Bft) O-SO 0.00 h 0.0 UV-I 0 W/m 0.4 C 3.0 C 7.3 km/h (2 Bft)
17.02.2007 01:00 2.7 C 82 % 1018.0 hPa 0.0 l/m 3.8 km/h (1 Bft) O-SO 0.00 h 0.0 UV-I 0 W/m 0.0 C 2.0 C 6.4 km/h (2 Bft)
17.02.2007 02:00 1.7 C 86 % 1017.8 hPa 0.0 l/m 1.6 km/h (1 Bft) O-SO 0.00 h 0.0 UV-I 0 W/m -0.3 C 1.6 C 3.8 km/h (1 Bft)
17.02.2007 03:00 1.2 C 88 % 1017.6 hPa 0.0 l/m 1.5 km/h (1 Bft) O 0.00 h 0.0 UV-I 0 W/m -0.6 C 1.1 C 2.8 km/h (1 Bft)
17.02.2007 04:00 0.9 C 88 % 1017.5 hPa 0.0 l/m 1.4 km/h (1 Bft) O 0.00 h 0.0 UV-I 0 W/m -0.8 C 0.8 C 2.8 km/h (1 Bft)
17.02.2007 05:00 -0.3 C 94 % 1017.7 hPa 0.0 l/m 0.2 km/h (0 Bft) O 0.00 h 0.0 UV-I 0 W/m -1.2 C -0.3 C 1.1 km/h (1 Bft)
17.02.2007 06:00 -0.3 C 95 % 1017.5 hPa 0.0 l/m 0.7 km/h (0 Bft) SO 0.00 h 0.0 UV-I 0 W/m -1.0 C -0.3 C 2.2 km/h (1 Bft)
17.02.2007 07:00 -0.8 C 96 % 1017.9 hPa 0.0 l/m 0.6 km/h (0 Bft) NO 0.08 h 0.0 UV-I 15 W/m -1.3 C -0.8 C 1.3 km/h (1 Bft)
17.02.2007 08:00 -0.6 C 97 % 1018.2 hPa 0.0 l/m 0.1 km/h (0 Bft) NO 0.00 h 0.5 UV-I 58 W/m -1.0 C -0.6 C 0.5 km/h (0 Bft)
17.02.2007 09:00 0.7 C 93 % 1018.6 hPa 0.0 l/m 3.9 km/h (1 Bft) O-SO 0.00 h 0.6 UV-I 130 W/m -0.4 C -0.4 C 6.8 km/h (2 Bft)
17.02.2007 10:00 1.6 C 87 % 1018.8 hPa 0.0 l/m 7.9 km/h (2 Bft) O-SO 0.02 h 1.0 UV-I 185 W/m -0.4 C -0.8 C 12.2 km/h (2 Bft)
17.02.2007 11:00 2.8 C 84 % 1019.2 hPa 0.0 l/m 3.7 km/h (1 Bft) O-SO 0.77 h 1.5 UV-I 339 W/m 0.3 C 2.1 C 7.1 km/h (2 Bft)
17.02.2007 12:00 4.3 C 78 % 1018.9 hPa 0.0 l/m 3.4 km/h (1 Bft) O-SO 0.92 h 1.6 UV-I 374 W/m 0.8 C 3.8 C 6.2 km/h (2 Bft)
17.02.2007 13:00 5.7 C 73 % 1018.5 hPa 0.0 l/m 0.7 km/h (0 Bft) O 0.75 h 1.4 UV-I 316 W/m 1.3 C 5.7 C 2.2 km/h (1 Bft)
17.02.2007 14:00 6.5 C 71 % 1018.1 hPa 0.0 l/m 1.1 km/h (1 Bft) N-NW 0.00 h 1.1 UV-I 232 W/m 1.6 C 6.5 C 2.7 km/h (1 Bft)
17.02.2007 15:00 7.0 C 70 % 1018.0 hPa 0.0 l/m 0.9 km/h (0 Bft) O 0.32 h 0.8 UV-I 190 W/m 1.9 C 7.0 C 3.0 km/h (1 Bft)
17.02.2007 16:00 6.5 C 73 % 1017.6 hPa 0.0 l/m 1.5 km/h (1 Bft) O-SO 0.00 h 0.5 UV-I 97 W/m 2.0 C 6.4 C 3.4 km/h (1 Bft)
17.02.2007 17:00 5.4 C 76 % 1017.6 hPa 0.0 l/m 0.1 km/h (0 Bft) O-NO 0.00 h 0.0 UV-I 21 W/m 1.5 C 5.4 C 1.0 km/h (0 Bft)
17.02.2007 18:00 4.7 C 78 % 1017.7 hPa 0.0 l/m 0.3 km/h (0 Bft) O 0.00 h 0.0 UV-I 0 W/m 1.2 C 4.7 C 1.0 km/h (0 Bft)
17.02.2007 19:00 3.7 C 83 % 1017.8 hPa 0.0 l/m 0.3 km/h (0 Bft) O 0.00 h 0.0 UV-I 0 W/m 1.1 C 3.7 C 0.8 km/h (0 Bft)
17.02.2007 20:00 2.6 C 89 % 1017.5 hPa 0.0 l/m 0.0 km/h (0 Bft) N 0.00 h 0.0 UV-I 0 W/m 0.9 C 2.6 C 0.2 km/h (0 Bft)
17.02.2007 21:00 1.8 C 90 % 1017.4 hPa 0.0 l/m 0.4 km/h (0 Bft) O 0.00 h 0.0 UV-I 0 W/m 0.4 C 1.8 C 1.4 km/h (1 Bft)
17.02.2007 22:00 1.1 C 91 % 1017.2 hPa 0.0 l/m 1.1 km/h (0 Bft) O 0.00 h 0.0 UV-I 0 W/m -0.2 C 1.0 C 1.8 km/h (1 Bft)
17.02.2007 23:00 0.3 C 94 % 1016.9 hPa 0.0 l/m 0.0 km/h (0 Bft) N 0.00 h 0.0 UV-I 0 W/m -0.5 C 0.3 C 0.1 km/h (0 Bft)
18.02.2007 00:00 -0.3 C 95 % 1017.1 hPa 0.0 l/m 0.4 km/h (0 Bft) O-SO 0.00 h 0.0 UV-I 0 W/m -0.9 C -0.3 C 0.7 km/h (0 Bft)
18.02.2007 01:00 -0.5 C 96 % 1017.2 hPa 0.0 l/m 0.2 km/h (0 Bft) O 0.00 h 0.0 UV-I 0 W/m -1.1 C -0.5 C 0.9 km/h (0 Bft)
18.02.2007 02:00 -1.1 C 96 % 1017.3 hPa 0.0 l/m 0.0 km/h (0 Bft) O 0.00 h 0.0 UV-I 0 W/m -1.7 C -1.1 C 0.2 km/h (0 Bft)
18.02.2007 03:00 -1.4 C 98 % 1017.0 hPa 0.0 l/m 0.6 km/h (0 Bft) O 0.00 h 0.0 UV-I 0 W/m -1.8 C -1.4 C 1.0 km/h (0 Bft)
18.02.2007 04:00 -2.2 C 98 % 1016.8 hPa 0.0 l/m 0.2 km/h (0 Bft) O 0.00 h 0.0 UV-I 0 W/m -2.5 C -2.2 C 0.4 km/h (0 Bft)
18.02.2007 05:00 -1.9 C 98 % 1016.6 hPa 0.0 l/m 0.0 km/h (0 Bft) N 0.00 h 0.0 UV-I 0 W/m -2.2 C -1.9 C 0.4 km/h (0 Bft)
18.02.2007 06:00 -1.6 C 98 % 1016.3 hPa 0.0 l/m 0.6 km/h (0 Bft) SO 0.00 h 0.0 UV-I 0 W/m -1.9 C -1.6 C 1.3 km/h (1 Bft)
18.02.2007 07:00 -1.9 C 98 % 1016.6 hPa 0.0 l/m 0.4 km/h (0 Bft) O 0.00 h 0.0 UV-I 10 W/m -2.2 C -1.9 C 1.3 km/h (1 Bft)
18.02.2007 08:00 -1.7 C 98 % 1016.8 hPa 0.0 l/m 0.8 km/h (0 Bft) O 0.00 h 0.0 UV-I 42 W/m -2.0 C -1.7 C 1.8 km/h (1 Bft)
18.02.2007 09:00 -1.2 C 99 % 1016.6 hPa 0.0 l/m 0.5 km/h (0 Bft) SO 0.00 h 0.5 UV-I 90 W/m -1.4 C -1.3 C 1.8 km/h (1 Bft)
18.02.2007 10:00 -1.0 C 99 % 1016.6 hPa 0.0 l/m 1.7 km/h (1 Bft) SO 0.00 h 0.7 UV-I 159 W/m -1.1 C -1.1 C 3.5 km/h (1 Bft)
18.02.2007 11:00 0.8 C 100 % 1016.5 hPa 0.0 l/m 3.0 km/h (1 Bft) SO 0.13 h 1.1 UV-I 242 W/m 0.7 C 0.4 C 5.9 km/h (2 Bft)
18.02.2007 12:00 3.7 C 97 % 1016.0 hPa 0.0 l/m 2.6 km/h (1 Bft) S-SO 1.00 h 1.7 UV-I 455 W/m 3.1 C 3.5 C 5.6 km/h (1 Bft)
18.02.2007 13:00 6.5 C 78 % 1015.2 hPa 0.0 l/m 4.6 km/h (1 Bft) S-SO 1.00 h 1.6 UV-I 439 W/m 3.0 C 5.9 C 8.4 km/h (2 Bft)
18.02.2007 14:00 9.2 C 70 % 1014.5 hPa 0.0 l/m 5.1 km/h (1 Bft) S 1.00 h 1.3 UV-I 383 W/m 3.9 C 8.8 C 9.8 km/h (2 Bft)
18.02.2007 15:00 11.5 C 60 % 1013.7 hPa 0.0 l/m 4.5 km/h (1 Bft) S 1.00 h 0.9 UV-I 278 W/m 3.9 C 11.5 C 9.3 km/h (2 Bft)
18.02.2007 16:00 11.6 C 59 % 1013.5 hPa 0.0 l/m 5.2 km/h (1 Bft) S-SO 0.50 h 0.6 UV-I 116 W/m 3.8 C 11.6 C 9.1 km/h (2 Bft)
18.02.2007 17:00 10.4 C 63 % 1013.6 hPa 0.0 l/m 3.8 km/h (1 Bft) S-SO 0.00 h 0.0 UV-I 20 W/m 3.6 C 10.4 C 7.1 km/h (2 Bft)
18.02.2007 18:00 9.1 C 67 % 1014.0 hPa 0.0 l/m 5.3 km/h (1 Bft) S-SO 0.00 h 0.0 UV-I 0 W/m 3.3 C 8.6 C 7.8 km/h (2 Bft)
18.02.2007 19:00 7.9 C 72 % 1014.3 hPa 0.0 l/m 4.7 km/h (1 Bft) SO 0.00 h 0.0 UV-I 0 W/m 3.1 C 7.5 C 6.9 km/h (2 Bft)
18.02.2007 20:00 6.4 C 77 % 1014.8 hPa 0.0 l/m 1.3 km/h (1 Bft) O-SO 0.00 h 0.0 UV-I 0 W/m 2.6 C 6.3 C 2.2 km/h (1 Bft)
18.02.2007 21:00 4.8 C 83 % 1015.4 hPa 0.0 l/m 0.2 km/h (0 Bft) O-SO 0.00 h 0.0 UV-I 0 W/m 2.1 C 4.8 C 0.7 km/h (0 Bft)
18.02.2007 22:00 3.5 C 88 % 1016.0 hPa 0.0 l/m 0.0 km/h (0 Bft) O-SO 0.00 h 0.0 UV-I 0 W/m 1.7 C 3.5 C 0.3 km/h (0 Bft)
18.02.2007 23:00 2.9 C 90 % 1016.1 hPa 0.0 l/m 0.3 km/h (0 Bft) O 0.00 h 0.0 UV-I 0 W/m 1.5 C 2.9 C 0.7 km/h (0 Bft)
Min-Datum _ 18.02.07 16.02.07 12.02.07 - 12.02.07 - - - - 18.02.07 14.02.07 12.02.07
_ Min-Zeit 04:42 15:33 12:45 - 00:00 - - - - 04:42 04:57 00:00
Minimum _ -2.6 C 43 % 998.4 hPa - 0.0 km/h (0 Bft) - - - - -3.0 C -3.5 C 0.0 km/h (0 Bft)
Max-Datum _ 18.02.07 15.02.07 16.02.07 12.02.07 13.02.07 - 13.02.07 16.02.07 15.02.07 12.02.07 18.02.07 13.02.07
_ Max-Zeit 16:03 02:13 01:00 13:27 07:23 - 14:38 12:01 13:23 13:31 16:03 07:22
Maximum _ 12.3 C 100 % 1025.9 hPa 4.4 l/m 37.2 km/h
W (5 Bft)
- 0.02 h 2.0 UV-I 591 W/m 7.8 C 12.3 C 57.7 km/h
W (7 Bft)
Durchschnitt _ 4.7 C 84 % 1014.8 hPa #26.8 l/m 4.2 km/h (1 Bft) W #21:57 h 1.0 UV-I 150 W/m 2.0 C 4.2 C 7.3 km/h (2 Bft)
© Kaiko 2007